Time,TemperatureF,DewpointF,PressureIn,WindDirection,WindDirectionDegrees,WindSpeedMPH,WindSpeedGustMPH,Humidity,HourlyPrecipIn,Conditions,Clouds,dailyrainin,SoftwareType,DateUTC
2013-05-14 00:02:00,73.0,-99.9,30.20,ESE,107,11.0,13.0,-999,-99.99,,,-99.99,,2013-05-14 05:02:00,
2013-05-14 00:12:00,73.0,-99.9,30.20,ESE,106,11.0,12.0,-999,-99.99,,,-99.99,,2013-05-14 05:12:00,
2013-05-14 00:22:00,73.0,-99.9,30.20,ESE,116,11.0,13.0,-999,-99.99,,,-99.99,,2013-05-14 05:22:00,
2013-05-14 00:32:00,73.0,-99.9,30.19,ESE,117,11.0,13.0,-999,-99.99,,,-99.99,,2013-05-14 05:32:00,
2013-05-14 00:42:00,73.0,-99.9,30.19,ESE,115,12.0,13.0,-999,-99.99,,,-99.99,,2013-05-14 05:42:00,
2013-05-14 00:53:00,73.0,-99.9,30.19,ESE,113,14.0,15.0,-999,-99.99,,,-99.99,,2013-05-14 05:53:00,
2013-05-14 01:01:00,73.0,-99.9,30.19,ESE,121,12.0,15.0,-999,-99.99,,,-99.99,,2013-05-14 06:01:00,
2013-05-14 01:13:00,73.0,-99.9,30.19,ESE,120,13.0,15.0,-999,-99.99,,,-99.99,,2013-05-14 06:13:00,
2013-05-14 01:22:00,73.0,-99.9,30.18,ESE,111,13.0,15.0,-999,-99.99,,,-99.99,,2013-05-14 06:22:00,
2013-05-14 01:32:00,73.0,-99.9,30.18,ESE,111,12.0,15.0,-999,-99.99,,,-99.99,,2013-05-14 06:32:00,
2013-05-14 01:42:00,73.0,-99.9,30.17,ESE,116,12.0,14.0,-999,-99.99,,,-99.99,,2013-05-14 06:42:00,
2013-05-14 01:52:00,73.0,-99.9,30.18,ESE,115,12.0,14.0,-999,-99.99,,,-99.99,,2013-05-14 06:52:00,
2013-05-14 02:02:00,73.0,-99.9,30.17,ESE,116,12.0,13.0,-999,-99.99,,,-99.99,,2013-05-14 07:02:00,
2013-05-14 02:11:00,73.0,-99.9,30.17,SE,125,11.0,13.0,-999,-99.99,,,-99.99,,2013-05-14 07:11:00,
2013-05-14 02:22:00,73.0,-99.9,30.17,SE,132,11.0,12.0,-999,-99.99,,,-99.99,,2013-05-14 07:22:00,
2013-05-14 02:32:00,73.0,-99.9,30.17,SE,126,10.0,12.0,-999,-99.99,,,-99.99,,2013-05-14 07:32:00,
2013-05-14 02:42:00,73.0,-99.9,30.17,SE,132,9.0,11.0,-999,-99.99,,,-99.99,,2013-05-14 07:42:00,
2013-05-14 02:52:00,73.0,-99.9,30.17,ESE,116,10.0,12.0,-999,-99.99,,,-99.99,,2013-05-14 07:52:00,
2013-05-14 03:02:00,73.0,-99.9,30.17,ESE,119,11.0,12.0,-999,-99.99,,,-99.99,,2013-05-14 08:02:00,
2013-05-14 03:11:00,73.0,-99.9,30.16,ESE,113,10.0,11.0,-999,-99.99,,,-99.99,,2013-05-14 08:11:00,
2013-05-14 03:22:00,73.0,-99.9,30.15,ESE,110,10.0,12.0,-999,-99.99,,,-99.99,,2013-05-14 08:22:00,
2013-05-14 03:32:00,73.0,-99.9,30.15,ESE,110,10.0,12.0,-999,-99.99,,,-99.99,,2013-05-14 08:32:00,
2013-05-14 03:42:00,73.0,-99.9,30.15,ESE,110,11.0,12.0,-999,-99.99,,,-99.99,,2013-05-14 08:42:00,
2013-05-14 03:52:00,73.0,-99.9,30.14,ESE,111,11.0,13.0,-999,-99.99,,,-99.99,,2013-05-14 08:52:00,
2013-05-14 04:02:00,73.0,-99.9,30.14,East,98,11.0,12.0,-999,-99.99,,,-99.99,,2013-05-14 09:02:00,
2013-05-14 04:11:00,73.0,-99.9,30.14,East,99,12.0,13.0,-999,-99.99,,,-99.99,,2013-05-14 09:11:00,
2013-05-14 04:22:00,73.0,-99.9,30.14,East,90,13.0,14.0,-999,-99.99,,,-99.99,,2013-05-14 09:22:00,
2013-05-14 04:33:00,73.0,-99.9,30.13,East,94,13.0,15.0,-999,-99.99,,,-99.99,,2013-05-14 09:33:00,
2013-05-14 04:44:00,73.0,-99.9,30.12,East,96,15.0,17.0,-999,-99.99,,,-99.99,,2013-05-14 09:44:00,
2013-05-14 04:55:00,73.0,-99.9,30.12,East,99,15.0,17.0,-999,-99.99,,,-99.99,,2013-05-14 09:55:00,
2013-05-14 05:05:00,73.0,-99.9,30.12,ESE,106,15.0,17.0,-999,-99.99,,,-99.99,,2013-05-14 10:05:00,
2013-05-14 05:14:00,73.0,-99.9,30.11,East,97,16.0,18.0,-999,-99.99,,,-99.99,,2013-05-14 10:14:00,
2013-05-14 05:25:00,73.0,-99.9,30.11,ESE,105,16.0,18.0,-999,-99.99,,,-99.99,,2013-05-14 10:25:00,
2013-05-14 05:33:00,73.0,-99.9,30.11,ESE,103,15.0,19.0,-999,-99.99,,,-99.99,,2013-05-14 10:33:00,
2013-05-14 05:42:00,73.0,-99.9,30.11,ESE,104,16.0,18.0,-999,-99.99,,,-99.99,,2013-05-14 10:42:00,
2013-05-14 05:53:00,73.0,-99.9,30.11,ESE,102,16.0,17.0,-999,-99.99,,,-99.99,,2013-05-14 10:53:00,
2013-05-14 06:03:00,73.0,-99.9,30.11,East,98,15.0,18.0,-999,-99.99,,,-99.99,,2013-05-14 11:03:00,
2013-05-14 06:11:00,73.0,-99.9,30.11,ESE,105,14.0,17.0,-999,-99.99,,,-99.99,,2013-05-14 11:11:00,
2013-05-14 06:22:00,73.0,-99.9,30.11,ESE,102,14.0,17.0,-999,-99.99,,,-99.99,,2013-05-14 11:22:00,
2013-05-14 06:32:00,73.0,-99.9,30.11,East,98,15.0,17.0,-999,-99.99,,,-99.99,,2013-05-14 11:32:00,
2013-05-14 06:43:00,73.0,-99.9,30.11,ESE,106,16.0,17.0,-999,-99.99,,,-99.99,,2013-05-14 11:43:00,
2013-05-14 06:53:00,73.0,-99.9,30.11,ESE,108,17.0,20.0,-999,-99.99,,,-99.99,,2013-05-14 11:53:00,
2013-05-14 07:03:00,73.0,-99.9,30.11,ESE,113,14.0,17.0,-999,-99.99,,,-99.99,,2013-05-14 12:03:00,
2013-05-14 07:12:00,73.0,-99.9,30.12,ESE,116,14.0,17.0,-999,-99.99,,,-99.99,,2013-05-14 12:12:00,
2013-05-14 07:22:00,73.0,-99.9,30.12,ESE,110,13.0,15.0,-999,-99.99,,,-99.99,,2013-05-14 12:22:00,
2013-05-14 07:32:00,73.0,-99.9,30.13,ESE,115,12.0,13.0,-999,-99.99,,,-99.99,,2013-05-14 12:32:00,
2013-05-14 07:42:00,73.0,-99.9,30.13,ESE,115,10.0,13.0,-999,-99.99,,,-99.99,,2013-05-14 12:42:00,
2013-05-14 07:52:00,73.0,-99.9,30.14,ESE,117,12.0,14.0,-999,-99.99,,,-99.99,,2013-05-14 12:52:00,
2013-05-14 08:01:00,73.0,-99.9,30.14,ESE,116,13.0,14.0,-999,-99.99,,,-99.99,,2013-05-14 13:01:00,
2013-05-14 08:11:00,73.0,-99.9,30.14,ESE,116,12.0,13.0,-999,-99.99,,,-99.99,,2013-05-14 13:11:00,
2013-05-14 08:22:00,73.0,-99.9,30.14,ESE,119,11.0,13.0,-999,-99.99,,,-99.99,,2013-05-14 13:22:00,
2013-05-14 08:32:00,73.0,-99.9,30.14,SE,132,11.0,13.0,-999,-99.99,,,-99.99,,2013-05-14 13:32:00,
2013-05-14 08:42:00,73.0,-99.9,30.14,ESE,122,10.0,12.0,-999,-99.99,,,-99.99,,2013-05-14 13:42:00,
2013-05-14 08:52:00,73.0,-99.9,30.14,ESE,103,9.0,11.0,-999,-99.99,,,-99.99,,2013-05-14 13:52:00,
2013-05-14 09:01:00,73.0,-99.9,30.14,ESE,104,10.0,11.0,-999,-99.99,,,-99.99,,2013-05-14 14:01:00,
2013-05-14 09:11:00,74.0,-99.9,30.15,ESE,121,8.0,9.0,-999,-99.99,,,-99.99,,2013-05-14 14:11:00,
2013-05-14 09:22:00,74.0,-99.9,30.16,ESE,121,6.0,9.0,-999,-99.99,,,-99.99,,2013-05-14 14:22:00,
2013-05-14 09:32:00,74.0,-99.9,30.16,ESE,119,6.0,7.0,-999,-99.99,,,-99.99,,2013-05-14 14:32:00,
2013-05-14 09:42:00,74.0,-99.9,30.16,ESE,118,6.0,8.0,-999,-99.99,,,-99.99,,2013-05-14 14:42:00,
2013-05-14 09:53:00,74.0,-99.9,30.16,ESE,114,6.0,7.0,-999,-99.99,,,-99.99,,2013-05-14 14:53:00,
2013-05-14 10:01:00,74.0,-99.9,30.17,ESE,118,7.0,8.0,-999,-99.99,,,-99.99,,2013-05-14 15:01:00,
2013-05-14 10:12:00,74.0,-99.9,30.17,ESE,109,6.0,8.0,-999,-99.99,,,-99.99,,2013-05-14 15:12:00,
2013-05-14 10:22:00,73.0,-99.9,30.17,North,5,0.0,8.0,-999,-99.99,,,-99.99,,2013-05-14 15:22:00,
2013-05-14 10:33:00,74.0,-99.9,30.17,ESE,117,7.0,8.0,-999,-99.99,,,-99.99,,2013-05-14 15:33:00,
2013-05-14 10:43:00,74.0,-99.9,30.17,ESE,113,8.0,9.0,-999,-99.99,,,-99.99,,2013-05-14 15:43:00,
2013-05-14 10:53:00,74.0,-99.9,30.17,ESE,107,7.0,9.0,-999,-99.99,,,-99.99,,2013-05-14 15:53:00,
2013-05-14 11:02:00,74.0,-99.9,30.17,ESE,119,7.0,9.0,-999,-99.99,,,-99.99,,2013-05-14 16:02:00,
2013-05-14 11:12:00,74.0,-99.9,30.17,ESE,113,8.0,9.0,-999,-99.99,,,-99.99,,2013-05-14 16:12:00,
2013-05-14 11:23:00,74.0,-99.9,30.17,ESE,114,8.0,10.0,-999,-99.99,,,-99.99,,2013-05-14 16:23:00,
2013-05-14 11:33:00,74.0,-99.9,30.18,SE,128,8.0,9.0,-999,-99.99,,,-99.99,,2013-05-14 16:33:00,
2013-05-14 11:44:00,74.0,-99.9,30.18,SE,129,9.0,10.0,-999,-99.99,,,-99.99,,2013-05-14 16:44:00,
2013-05-14 11:54:00,75.0,-99.9,30.18,SE,131,8.0,9.0,-999,-99.99,,,-99.99,,2013-05-14 16:54:00,
2013-05-14 12:04:00,74.0,-99.9,30.18,SE,131,8.0,10.0,-999,-99.99,,,-99.99,,2013-05-14 17:04:00,
2013-05-14 12:14:00,75.0,-99.9,30.18,SE,132,8.0,9.0,-999,-99.99,,,-99.99,,2013-05-14 17:14:00,
2013-05-14 12:25:00,75.0,-99.9,30.17,SE,129,7.0,9.0,-999,-99.99,,,-99.99,,2013-05-14 17:25:00,
2013-05-14 12:33:00,75.0,-99.9,30.17,SE,136,9.0,11.0,-999,-99.99,,,-99.99,,2013-05-14 17:33:00,
2013-05-14 12:43:00,75.0,-99.9,30.17,SE,130,9.0,10.0,-999,-99.99,,,-99.99,,2013-05-14 17:43:00,
2013-05-14 12:52:00,75.0,-99.9,30.17,SE,128,10.0,11.0,-999,-99.99,,,-99.99,,2013-05-14 17:52:00,
2013-05-14 13:02:00,75.0,-99.9,30.16,SE,125,10.0,12.0,-999,-99.99,,,-99.99,,2013-05-14 18:02:00,
2013-05-14 13:12:00,75.0,-99.9,30.16,SE,125,11.0,12.0,-999,-99.99,,,-99.99,,2013-05-14 18:12:00,
2013-05-14 13:22:00,75.0,-99.9,30.16,SE,125,11.0,13.0,-999,-99.99,,,-99.99,,2013-05-14 18:22:00,
2013-05-14 13:32:00,75.0,-99.9,30.16,SE,125,10.0,12.0,-999,-99.99,,,-99.99,,2013-05-14 18:32:00,
2013-05-14 13:42:00,75.0,-99.9,30.15,SE,124,11.0,12.0,-999,-99.99,,,-99.99,,2013-05-14 18:42:00,
2013-05-14 13:52:00,75.0,-99.9,30.16,SE,130,11.0,13.0,-999,-99.99,,,-99.99,,2013-05-14 18:52:00,
2013-05-14 14:02:00,75.0,-99.9,30.15,SE,126,11.0,13.0,-999,-99.99,,,-99.99,,2013-05-14 19:02:00,
2013-05-14 14:12:00,75.0,-99.9,30.15,SE,128,11.0,13.0,-999,-99.99,,,-99.99,,2013-05-14 19:12:00,
2013-05-14 14:22:00,75.0,-99.9,30.15,SE,129,13.0,13.0,-999,-99.99,,,-99.99,,2013-05-14 19:22:00,
2013-05-14 14:32:00,75.0,-99.9,30.14,SE,130,13.0,14.0,-999,-99.99,,,-99.99,,2013-05-14 19:32:00,
2013-05-14 14:42:00,75.0,-99.9,30.14,SE,128,12.0,14.0,-999,-99.99,,,-99.99,,2013-05-14 19:42:00,
2013-05-14 14:53:00,75.0,-99.9,30.14,ESE,122,11.0,14.0,-999,-99.99,,,-99.99,,2013-05-14 19:53:00,
2013-05-14 15:02:00,75.0,-99.9,30.14,SE,127,13.0,14.0,-999,-99.99,,,-99.99,,2013-05-14 20:02:00,
2013-05-14 15:11:00,75.0,-99.9,30.14,SE,133,14.0,16.0,-999,-99.99,,,-99.99,,2013-05-14 20:11:00,
2013-05-14 15:23:00,75.0,-99.9,30.13,SE,126,15.0,17.0,-999,-99.99,,,-99.99,,2013-05-14 20:23:00,
2013-05-14 15:33:00,75.0,-99.9,30.13,SE,124,16.0,18.0,-999,-99.99,,,-99.99,,2013-05-14 20:33:00,
2013-05-14 15:44:00,75.0,-99.9,30.13,ESE,123,14.0,16.0,-999,-99.99,,,-99.99,,2013-05-14 20:44:00,
2013-05-14 15:52:00,75.0,-99.9,30.12,ESE,123,14.0,17.0,-999,-99.99,,,-99.99,,2013-05-14 20:52:00,
2013-05-14 16:03:00,75.0,-99.9,30.12,SE,124,15.0,17.0,-999,-99.99,,,-99.99,,2013-05-14 21:03:00,
2013-05-14 16:12:00,75.0,-99.9,30.11,ESE,121,15.0,17.0,-999,-99.99,,,-99.99,,2013-05-14 21:12:00,
2013-05-14 16:23:00,75.0,-99.9,30.12,SE,125,16.0,17.0,-999,-99.99,,,-99.99,,2013-05-14 21:23:00,
2013-05-14 16:34:00,75.0,-99.9,30.11,ESE,122,14.0,18.0,-999,-99.99,,,-99.99,,2013-05-14 21:34:00,
2013-05-14 16:43:00,75.0,-99.9,30.11,ESE,120,17.0,18.0,-999,-99.99,,,-99.99,,2013-05-14 21:43:00,
2013-05-14 16:53:00,75.0,-99.9,30.10,ESE,123,16.0,18.0,-999,-99.99,,,-99.99,,2013-05-14 21:53:00,
2013-05-14 17:03:00,75.0,-99.9,30.10,SE,126,17.0,18.0,-999,-99.99,,,-99.99,,2013-05-14 22:03:00,
2013-05-14 17:13:00,75.0,-99.9,30.10,SE,125,17.0,18.0,-999,-99.99,,,-99.99,,2013-05-14 22:13:00,
2013-05-14 17:24:00,75.0,-99.9,30.09,ESE,122,17.0,18.0,-999,-99.99,,,-99.99,,2013-05-14 22:24:00,
2013-05-14 17:35:00,75.0,-99.9,30.09,ESE,123,18.0,19.0,-999,-99.99,,,-99.99,,2013-05-14 22:35:00,
2013-05-14 17:45:00,75.0,-99.9,30.09,SE,128,16.0,20.0,-999,-99.99,,,-99.99,,2013-05-14 22:45:00,
2013-05-14 17:55:00,75.0,-99.9,30.09,ESE,122,17.0,18.0,-999,-99.99,,,-99.99,,2013-05-14 22:55:00,
2013-05-14 18:04:00,75.0,-99.9,30.07,ESE,122,18.0,20.0,-999,-99.99,,,-99.99,,2013-05-14 23:04:00,
2013-05-14 18:12:00,75.0,-99.9,30.07,ESE,119,18.0,20.0,-999,-99.99,,,-99.99,,2013-05-14 23:12:00,
2013-05-14 18:22:00,75.0,-99.9,30.06,ESE,118,19.0,21.0,-999,-99.99,,,-99.99,,2013-05-14 23:22:00,
2013-05-14 18:32:00,75.0,-99.9,30.06,ESE,123,18.0,21.0,-999,-99.99,,,-99.99,,2013-05-14 23:32:00,
2013-05-14 18:44:00,75.0,-99.9,30.06,ESE,120,19.0,22.0,-999,-99.99,,,-99.99,,2013-05-14 23:44:00,
2013-05-14 18:53:00,75.0,-99.9,30.06,ESE,123,20.0,22.0,-999,-99.99,,,-99.99,,2013-05-14 23:53:00,
2013-05-14 19:02:00,75.0,-99.9,30.05,SE,126,19.0,24.0,-999,-99.99,,,-99.99,,2013-05-15 00:02:00,
2013-05-14 19:11:00,75.0,-99.9,30.05,ESE,122,20.0,23.0,-999,-99.99,,,-99.99,,2013-05-15 00:11:00,
2013-05-14 19:22:00,75.0,-99.9,30.05,SE,128,21.0,23.0,-999,-99.99,,,-99.99,,2013-05-15 00:22:00,
2013-05-14 19:32:00,75.0,-99.9,30.05,SE,128,22.0,24.0,-999,-99.99,,,-99.99,,2013-05-15 00:32:00,
2013-05-14 19:42:00,75.0,-99.9,30.05,SE,131,21.0,24.0,-999,-99.99,,,-99.99,,2013-05-15 00:42:00,
2013-05-14 19:52:00,75.0,-99.9,30.04,SE,128,21.0,24.0,-999,-99.99,,,-99.99,,2013-05-15 00:52:00,
2013-05-14 20:01:00,75.0,-99.9,30.04,SE,128,20.0,23.0,-999,-99.99,,,-99.99,,2013-05-15 01:01:00,
2013-05-14 20:12:00,75.0,-99.9,30.04,SE,126,20.0,22.0,-999,-99.99,,,-99.99,,2013-05-15 01:12:00,
2013-05-14 20:22:00,74.0,-99.9,30.05,SE,126,20.0,23.0,-999,-99.99,,,-99.99,,2013-05-15 01:22:00,
2013-05-14 20:32:00,74.0,-99.9,30.05,SE,127,21.0,23.0,-999,-99.99,,,-99.99,,2013-05-15 01:32:00,
2013-05-14 20:42:00,74.0,-99.9,30.05,SE,124,19.0,24.0,-999,-99.99,,,-99.99,,2013-05-15 01:42:00,
2013-05-14 20:52:00,74.0,-99.9,30.05,ESE,122,20.0,23.0,-999,-99.99,,,-99.99,,2013-05-15 01:52:00,
2013-05-14 21:02:00,74.0,-99.9,30.05,SE,124,22.0,23.0,-999,-99.99,,,-99.99,,2013-05-15 02:02:00,
2013-05-14 21:11:00,74.0,-99.9,30.05,ESE,121,21.0,23.0,-999,-99.99,,,-99.99,,2013-05-15 02:11:00,
2013-05-14 21:22:00,74.0,-99.9,30.05,SE,125,20.0,24.0,-999,-99.99,,,-99.99,,2013-05-15 02:22:00,
2013-05-14 21:32:00,74.0,-99.9,30.05,SE,129,21.0,26.0,-999,-99.99,,,-99.99,,2013-05-15 02:32:00,
2013-05-14 21:42:00,74.0,-99.9,30.05,SE,129,23.0,26.0,-999,-99.99,,,-99.99,,2013-05-15 02:42:00,
2013-05-14 21:52:00,74.0,-99.9,30.06,SE,134,23.0,24.0,-999,-99.99,,,-99.99,,2013-05-15 02:52:00,
2013-05-14 22:01:00,74.0,-99.9,30.06,SE,135,21.0,24.0,-999,-99.99,,,-99.99,,2013-05-15 03:01:00,
2013-05-14 22:13:00,74.0,-99.9,30.06,SE,134,22.0,24.0,-999,-99.99,,,-99.99,,2013-05-15 03:13:00,
2013-05-14 22:22:00,74.0,-99.9,30.06,SE,132,22.0,25.0,-999,-99.99,,,-99.99,,2013-05-15 03:22:00,
2013-05-14 22:33:00,74.0,-99.9,30.07,SE,136,23.0,26.0,-999,-99.99,,,-99.99,,2013-05-15 03:33:00,
2013-05-14 22:44:00,74.0,-99.9,30.07,SE,137,23.0,26.0,-999,-99.99,,,-99.99,,2013-05-15 03:44:00,
2013-05-14 22:54:00,75.0,-99.9,30.08,SE,142,21.0,26.0,-999,-99.99,,,-99.99,,2013-05-15 03:54:00,
2013-05-14 23:03:00,74.0,-99.9,30.08,SE,145,23.0,25.0,-999,-99.99,,,-99.99,,2013-05-15 04:03:00,
2013-05-14 23:12:00,74.0,-99.9,30.09,SE,143,22.0,25.0,-999,-99.99,,,-99.99,,2013-05-15 04:12:00,
2013-05-14 23:24:00,74.0,-99.9,30.09,SE,142,21.0,24.0,-999,-99.99,,,-99.99,,2013-05-15 04:24:00,
2013-05-14 23:33:00,74.0,-99.9,30.09,SE,144,21.0,25.0,-999,-99.99,,,-99.99,,2013-05-15 04:33:00,
2013-05-14 23:43:00,74.0,-99.9,30.09,SE,141,19.0,22.0,-999,-99.99,,,-99.99,,2013-05-15 04:43:00,
2013-05-14 23:52:00,74.0,-99.9,30.09,SSE,149,19.0,23.0,-999,-99.99,,,-99.99,,2013-05-15 04:52:00,